Cumbernauld, United Kingdom
Current Conditions -  °F | °C
As of 11:50 AM on Friday 24 Oct 2014 (Local Time) from EGPF Reporting Station
Broken Clouds Broken Clouds  
Wind Chill: 52°   Ceiling: 4000
Heat Index: 52°   Visibility: 6mi
Dew Point: 45°   Wind: 20mph
Humidity: 76%   Direction: 230°SW
Pressure: 29.74"   Gusts: NA
Location:  55.95°N, 3.99°W
Report Text: EGPF 241050Z AUTO 23017KT 9999 FEW028/// BKN040/// //////TCU 11/07 Q1007
Loading
Personal Weather Stations






























Interactive Weather Map New forecast layout! Learn more

10-Day Weather Forecast

Advertisements
Track Severe Weather on mobile